createdAt,value
2019-04-16T00:04:24.857Z,17.32
2019-04-16T00:09:32.240Z,24.23
2019-04-16T00:14:42.582Z,21.65
2019-04-16T00:19:50.179Z,18.60
2019-04-16T00:24:57.503Z,21.62
2019-04-16T00:30:05.930Z,17.30
2019-04-16T00:35:15.660Z,18.67
2019-04-16T00:40:26.405Z,16.00
2019-04-16T00:45:31.588Z,19.07
2019-04-16T00:50:39.844Z,16.40
2019-04-16T00:55:47.826Z,12.30
2019-04-16T01:00:55.315Z,19.25
2019-04-16T01:06:07.042Z,15.98
2019-04-16T01:11:12.154Z,21.77
2019-04-16T01:16:19.619Z,17.25
2019-04-16T01:21:27.728Z,28.52
2019-04-16T01:26:36.724Z,21.00
2019-04-16T01:31:45.462Z,22.58
2019-04-16T01:36:54.371Z,22.80
2019-04-16T01:42:02.691Z,23.12
2019-04-16T01:47:10.560Z,16.80
2019-04-16T01:52:19.091Z,21.62
2019-04-16T01:57:28.384Z,16.05
2019-04-16T02:02:35.968Z,25.35
2019-04-16T02:07:42.989Z,16.15
2019-04-16T02:12:50.059Z,19.10
2019-04-16T02:17:58.767Z,20.88
2019-04-16T02:23:06.200Z,22.27
2019-04-16T02:28:13.321Z,19.32
2019-04-16T02:33:21.344Z,28.77
2019-04-16T02:38:29.430Z,21.33
2019-04-16T02:43:41.006Z,20.20
2019-04-16T02:48:51.530Z,21.23
2019-04-16T02:53:58.907Z,61.50
2019-04-16T02:59:11.875Z,46.28
2019-04-16T03:04:17.455Z,18.75
2019-04-16T03:09:25.829Z,24.47
2019-04-16T03:14:33.359Z,20.60
2019-04-16T03:19:48.341Z,19.30
2019-04-16T03:24:55.058Z,20.57
2019-04-16T03:30:05.131Z,18.52
2019-04-16T03:35:12.337Z,18.43
2019-04-16T03:40:25.950Z,19.17
2019-04-16T03:45:41.675Z,24.05
2019-04-16T03:50:49.593Z,14.00
2019-04-16T03:55:58.324Z,12.60
2019-04-16T04:01:05.764Z,14.83
2019-04-16T04:06:13.431Z,15.80
2019-04-16T04:11:21.012Z,19.35
2019-04-16T04:16:30.594Z,20.15
2019-04-16T04:21:38.470Z,16.62
2019-04-16T04:26:46.305Z,14.68
2019-04-16T04:31:54.015Z,17.65
2019-04-16T04:37:01.534Z,16.52
2019-04-16T04:42:08.679Z,16.65
2019-04-16T04:47:19.409Z,13.90
2019-04-16T04:52:27.987Z,15.87
2019-04-16T04:57:35.767Z,22.50
2019-04-16T05:02:44.525Z,17.23
2019-04-16T05:07:52.210Z,14.70
2019-04-16T05:13:00.924Z,16.52
2019-04-16T05:18:09.894Z,16.52
2019-04-16T05:23:28.099Z,16.17
2019-04-16T05:28:35.500Z,15.78
2019-04-16T05:33:43.599Z,14.10
2019-04-16T05:38:55.523Z,10.93
2019-04-16T05:44:01.771Z,12.95
2019-04-16T05:49:09.953Z,19.65
2019-04-16T05:54:18.264Z,11.18
2019-04-16T05:59:26.222Z,12.82
2019-04-16T06:04:34.533Z,13.25
2019-04-16T06:09:44.511Z,15.08
2019-04-16T06:15:12.051Z,16.52
2019-04-16T06:20:21.386Z,16.67
2019-04-16T06:25:30.523Z,13.25
2019-04-16T06:30:40.285Z,14.33
2019-04-16T06:35:48.797Z,12.13
2019-04-16T06:40:57.610Z,13.55
2019-04-16T06:46:08.367Z,15.08
2019-04-16T06:51:16.814Z,15.83
2019-04-16T06:56:25.575Z,11.40
2019-04-16T07:01:36.756Z,13.78
2019-04-16T07:06:54.483Z,14.30
2019-04-16T07:12:03.382Z,10.70
2019-04-16T07:17:11.950Z,13.80
2019-04-16T08:03:08.617Z,16.90
2019-04-16T08:08:16.347Z,13.40
2019-04-16T08:13:24.882Z,13.40
2019-04-16T08:18:32.135Z,12.83
2019-04-16T08:23:41.068Z,11.28
2019-04-16T08:28:48.468Z,16.95
2019-04-16T08:33:56.629Z,13.98
2019-04-16T08:39:06.657Z,11.80
2019-04-16T08:44:14.180Z,12.05
2019-04-16T08:49:22.501Z,14.63
2019-04-16T08:54:30.912Z,15.28
2019-04-16T08:59:39.481Z,12.90
2019-04-16T09:04:47.864Z,14.07
2019-04-16T09:09:57.625Z,13.45
2019-04-16T09:15:05.920Z,14.15
2019-04-16T09:20:14.812Z,14.47
2019-04-16T09:25:23.421Z,14.50
2019-04-16T09:30:32.575Z,12.78
2019-04-16T09:40:49.400Z,14.50
2019-04-16T09:46:09.632Z,15.07
2019-04-16T09:51:05.754Z,17.77
2019-04-16T10:14:30.219Z,22.85
2019-04-16T10:26:06.835Z,17.75
2019-04-16T10:31:22.537Z,14.93
2019-04-16T10:36:30.297Z,18.40
2019-04-16T10:41:39.139Z,14.85
2019-04-16T10:46:48.404Z,29.35
2019-04-16T10:52:55.676Z,26.50
2019-04-16T10:58:04.859Z,17.45
2019-04-16T11:03:34.396Z,26.60
2019-04-16T11:08:50.701Z,25.88
2019-04-16T11:14:00.244Z,21.17
2019-04-16T11:19:16.775Z,23.32
2019-04-16T11:24:23.928Z,20.12
2019-04-16T11:29:31.243Z,19.32
2019-04-16T11:34:38.644Z,24.82
2019-04-16T11:39:45.922Z,20.08
2019-04-16T11:44:53.390Z,20.65
2019-04-16T11:50:02.445Z,22.02
2019-04-16T11:55:12.381Z,32.30
2019-04-16T12:00:21.820Z,27.60
2019-04-16T12:05:30.770Z,28.20
2019-04-16T12:10:39.968Z,19.67
2019-04-16T12:15:48.969Z,27.45
2019-04-16T12:20:57.945Z,33.58
2019-04-16T12:26:09.520Z,28.02
2019-04-16T12:31:17.506Z,31.27
2019-04-16T12:36:26.599Z,25.92
2019-04-16T12:41:36.099Z,32.93
2019-04-16T12:46:57.468Z,28.03
2019-04-16T12:52:06.458Z,21.27
2019-04-16T12:57:16.659Z,26.40
2019-04-16T13:02:26.546Z,20.75
2019-04-16T13:07:38.756Z,25.77
2019-04-16T13:12:44.768Z,31.23
2019-04-16T13:17:53.465Z,24.23
2019-04-16T13:23:02.409Z,24.55
2019-04-16T13:28:09.837Z,27.65
2019-04-16T13:33:17.329Z,19.10
2019-04-16T13:38:26.778Z,21.65
2019-04-16T13:43:55.583Z,22.53
2019-04-16T13:49:04.106Z,19.70
2019-04-16T13:54:13.010Z,23.95
2019-04-16T13:59:21.991Z,22.87
2019-04-16T14:04:31.528Z,41.92
2019-04-16T14:09:37.905Z,34.40
2019-04-16T14:14:46.749Z,29.27
2019-04-16T14:19:54.442Z,31.02
2019-04-16T14:25:02.663Z,22.37
2019-04-16T14:30:12.088Z,27.40
2019-04-16T14:35:33.114Z,38.93
2019-04-16T14:40:30.336Z,33.40
2019-04-16T14:45:56.966Z,23.18
2019-04-16T14:50:48.243Z,23.50
2019-04-16T14:56:00.601Z,19.25
2019-04-16T15:01:07.028Z,22.70
2019-04-16T15:06:17.018Z,17.12
2019-04-16T15:11:25.741Z,20.08
2019-04-16T15:16:35.530Z,25.02
2019-04-16T15:21:45.376Z,28.47
2019-04-16T15:26:55.037Z,31.60
2019-04-16T15:32:05.932Z,30.97
2019-04-16T15:37:14.700Z,48.20
2019-04-16T15:42:23.436Z,39.92
2019-04-16T15:47:32.870Z,40.90
2019-04-16T15:52:41.958Z,33.65
2019-04-16T15:57:51.183Z,30.40
2019-04-16T16:02:59.391Z,28.40
2019-04-16T16:08:08.864Z,31.50
2019-04-16T16:13:15.971Z,40.52
2019-04-16T16:18:23.742Z,30.60
2019-04-16T16:23:34.058Z,30.37
2019-04-16T16:28:40.771Z,25.72
2019-04-16T16:33:48.059Z,24.87
2019-04-16T16:38:56.129Z,25.37
2019-04-16T16:44:03.635Z,22.05
2019-04-16T16:49:10.868Z,25.08
2019-04-16T16:54:20.220Z,26.12
2019-04-16T16:59:29.702Z,24.23
2019-04-16T17:04:38.422Z,27.62
2019-04-16T17:09:46.462Z,22.15
2019-04-16T17:14:53.533Z,27.10
2019-04-16T17:20:02.216Z,24.00
2019-04-16T17:25:11.647Z,25.27
2019-04-16T17:30:19.321Z,28.83
2019-04-16T17:35:27.244Z,25.08
2019-04-16T17:40:36.535Z,37.48
2019-04-16T17:45:44.083Z,37.75
2019-04-16T17:50:52.975Z,28.77
2019-04-16T17:56:01.376Z,39.10
2019-04-16T18:01:11.016Z,40.38
2019-04-16T18:06:19.433Z,39.10
2019-04-16T18:11:27.782Z,43.40
2019-04-16T18:16:36.064Z,36.10
2019-04-16T18:21:43.279Z,36.85
2019-04-16T18:26:52.207Z,41.68
2019-04-16T18:32:00.613Z,38.78
2019-04-16T18:37:08.952Z,45.03
2019-04-16T18:42:17.366Z,47.58
2019-04-16T18:47:25.636Z,41.05
2019-04-16T18:52:32.718Z,40.23
2019-04-16T18:57:40.201Z,44.18
2019-04-16T19:02:46.985Z,36.90
2019-04-16T19:07:55.886Z,45.40
2019-04-16T19:13:09.743Z,46.98
2019-04-16T19:18:19.499Z,42.73
2019-04-16T19:23:21.554Z,44.18
2019-04-16T19:28:28.770Z,47.25
2019-04-16T19:33:38.258Z,52.03
2019-04-16T19:38:44.130Z,41.92
2019-04-16T19:43:51.434Z,46.88
2019-04-16T19:49:00.457Z,58.70
2019-04-16T19:54:06.995Z,41.85
2019-04-16T19:59:13.760Z,47.08
2019-04-16T20:04:20.908Z,41.65
2019-04-16T20:09:28.146Z,39.30
2019-04-16T20:14:36.260Z,43.20
2019-04-16T20:19:44.920Z,45.85
2019-04-16T20:24:52.028Z,45.90
2019-04-16T20:30:00.275Z,46.63
2019-04-16T20:35:07.878Z,44.45
2019-04-16T20:40:17.732Z,44.95
2019-04-16T20:45:24.008Z,46.80
2019-04-16T20:50:31.941Z,40.40
2019-04-16T20:55:39.054Z,43.92
2019-04-16T21:00:47.925Z,39.70
2019-04-16T21:05:59.152Z,43.05
2019-04-16T21:11:07.386Z,36.28
2019-04-16T21:16:12.891Z,41.68
2019-04-16T21:21:23.355Z,37.90
2019-04-16T21:26:30.084Z,34.83
2019-04-16T21:31:41.466Z,37.67
2019-04-16T21:36:48.493Z,35.67
2019-04-16T21:42:00.848Z,35.23
2019-04-16T21:47:05.546Z,36.28
2019-04-16T21:52:14.626Z,38.70
2019-04-16T21:57:22.751Z,33.88
2019-04-16T22:02:34.440Z,34.48
2019-04-16T22:07:41.605Z,32.70
2019-04-16T22:12:49.103Z,41.75
2019-04-16T22:17:56.244Z,44.40
2019-04-16T22:23:03.758Z,39.63
2019-04-16T22:28:12.925Z,42.35
2019-04-16T22:33:22.562Z,35.70
2019-04-16T22:38:31.567Z,41.18
2019-04-16T22:43:42.606Z,44.38
2019-04-16T22:48:51.117Z,43.85
2019-04-16T22:53:59.145Z,47.85
2019-04-16T22:59:12.895Z,73.02
2019-04-16T23:04:41.884Z,67.37
2019-04-16T23:09:50.172Z,55.17
2019-04-16T23:14:58.148Z,53.85
2019-04-16T23:20:06.732Z,65.75
2019-04-16T23:25:14.897Z,90.47
2019-04-16T23:30:22.461Z,57.65
2019-04-16T23:35:30.481Z,59.33
2019-04-16T23:40:40.656Z,58.83
2019-04-16T23:45:48.011Z,58.52
2019-04-16T23:50:57.120Z,56.13
2019-04-16T23:56:04.671Z,53.63
